Poule les Echarmeaux (69) - 1

Date : 12/04/2014

Place Nom Licence Catégorie Club Temps CN à J-60 Points Différence Nouveau CN
1 BEAUVIR Maëlle 12709 D18 3502BR 0:10:05 5422 6132 +710 5870
2 DROIN Solène 17925 D18 4201RA 0:10:15 5570 6032 +462 5923
3 BEAUVISAGE Lauriane 11307 D20 7807IF 0:10:26 6630 5926 -704 6621
4 POIROT Delphine 15979 D20 8809LO 0:10:31 6318 5879 -439 6451
5 D'HARREVILLE Karine 4837 D21 8809LO 0:10:32 7014 5870 -1144 6891
6 LENOBLE Lou 23559 D16 6208NO 0:10:52 5240 5690 +450 5446
7 HANAUER Florence 20408 D16 6806AL 0:10:55 5643 5664 +21 5726
8 FOLTZER Cécile 26907 D18 2517FC 0:11:30 4515 5376 +861 4913
9 HABERKORN Chloé 10396 D20 2105BO 0:11:33 6203 5353 -850 6239
10 GIRARD Lucille 19689 D20 3705CE 0:11:38 5833 5315 -518 5785
11 LE GLAND Louise 22186 D16 7404RA 0:11:40 3324 5300 +1976 3970
12 HUMMEL-AZAIS Margaux 18432 D20 2517FC 0:11:42 6017 5284 -733 5958
13 DELENNE Camilla 13800 D18 1307PR 0:11:52 5240 5210 -30 5320
14 DUQUENNE Audrey 23885 D18 5907NO 0:11:52 4882 5210 +328 5075
15 BASSET Fiona 23384 D18 6911RA 0:11:59 5052 5160 +108 5085
16 BASSET Juliette 12398 D16 6911RA 0:12:02 4872 5138 +266 5085
17 VUITTON Marie 18842 D16 6911RA 0:12:05 4611 5117 +506 4781
18 VALETTE Marion 10430 D18 6913RA 0:12:09 5200 5089 -111 5181
19 BORNARD Julie 9402 D20 7305RA 0:12:11 5314 5075 -239 5290
20 CREUSAT Eva 23806 D18 8809LO 0:12:12 4594 5068 +474 4776
21 LOTERIE Laurine 7045 D20 5907NO 0:12:19 5863 5020 -843 5835
22 GUILLEMET Océane 22819 D18 3318AQ 0:12:45 5383 4849 -534 5603
23 GIRARD Clarisse 22476 D16 2508FC 0:12:51 3822 4812 +990 4434
24 FOL Loreline 16393 D18 3105MP 0:12:51 4811 4812 +1 4964
25 DUDOIGNON Chloé 18089 D16 2605RA 0:12:52 4676 4805 +129 4864
26 BOLZER Marie 20359 D16 5407LO 0:12:56 4152 4781 +629 4340
27 LUTHRINGER Coline 10091 D18 8809LO 0:13:26 4800 4603 -197 4938
28 MOUSSU Sarah 22301 D18 3318AQ 0:13:29 4637 4586 -51 4648
29 RIVOLLIER Isaline 22451 D20 4201RA 0:13:41 4627 4519 -108 4643
30 DELENNE Joanna 17030 D16 1307PR 0:13:56 3406 4437 +1031 3700
31 BEYLS Mathilde 19269 D16 7807IF 0:15:19 3125 4037 +912 3461
32 FALGA Beatrice 12403 D18 6911RA 0:15:27 3541 4002 +461 3636
33 CORBIN Emma 20916 D16 2604RA 0:16:39 4222 3713 -509 4254
TRESSOL Marine 20532 D16 1307PR pm 4743 0 4857